Terminal Aerodrome Forecast
Issued by NWS

Current Version | Previous Version | Graphics & Text | Print | Product List | Glossary On
Versions: 1 2 3 4 5 6 7 8 9 10 11 12 13 14 15 16 17 18 19 20 21 22 23 24 25
000
FTUS41 KRNK 181720
TAFLWB
TAF
KLWB 181720Z 1818/1918 26008KT P6SM SCT200
     FM182100 26006KT P6SM BKN070
     FM190100 28004KT P6SM VCSH OVC050
     FM190400 28004KT P6SM VCSH OVC025
     FM190600 26004KT 3SM BR OVC025
     FM190900 28005KT P6SM OVC015
     FM191600 28007KT P6SM SCT025=

USA.gov is the U.S. government's official web portal to all federal, state and local government web resources and services.